sensor_id;sensor_type;location;lat;lon;timestamp;P1;durP1;ratioP1;P2;durP2;ratioP2
28437;SDS011;15667;52.376;9.708;2023-08-06T06:13:40;11.85;;;6.35;;
28437;SDS011;15667;52.376;9.708;2023-08-06T06:16:06;11.05;;;5.80;;
28437;SDS011;15667;52.376;9.708;2023-08-06T06:18:32;14.07;;;6.13;;
28437;SDS011;15667;52.376;9.708;2023-08-06T06:20:59;9.18;;;5.40;;
28437;SDS011;15667;52.376;9.708;2023-08-06T06:23:25;12.15;;;6.07;;
28437;SDS011;15667;52.376;9.708;2023-08-06T06:25:51;9.05;;;5.43;;
28437;SDS011;15667;52.376;9.708;2023-08-06T06:28:17;7.82;;;4.90;;
28437;SDS011;15667;52.376;9.708;2023-08-06T06:30:43;7.20;;;4.60;;
28437;SDS011;15667;52.376;9.708;2023-08-06T06:33:09;9.23;;;4.60;;
28437;SDS011;15667;52.376;9.708;2023-08-06T06:35:36;9.68;;;5.38;;
28437;SDS011;15667;52.376;9.708;2023-08-06T06:38:02;6.20;;;4.47;;
28437;SDS011;15667;52.376;9.708;2023-08-06T06:40:28;4.93;;;3.30;;
28437;SDS011;15667;52.376;9.708;2023-08-06T06:42:58;9.43;;;2.88;;
28437;SDS011;15667;52.376;9.708;2023-08-06T06:45:24;6.82;;;3.03;;
28437;SDS011;15667;52.376;9.708;2023-08-06T06:47:50;5.65;;;3.28;;
28437;SDS011;15667;52.376;9.708;2023-08-06T06:50:16;5.55;;;3.33;;
28437;SDS011;15667;52.376;9.708;2023-08-06T06:52:42;6.05;;;3.40;;
28437;SDS011;15667;52.376;9.708;2023-08-06T06:55:08;6.78;;;3.65;;
28437;SDS011;15667;52.376;9.708;2023-08-06T06:57:34;6.60;;;2.92;;
28437;SDS011;15667;52.376;9.708;2023-08-06T07:00:00;5.38;;;2.80;;
28437;SDS011;15667;52.376;9.708;2023-08-06T07:02:26;5.55;;;3.30;;
28437;SDS011;15667;52.376;9.708;2023-08-06T07:04:52;7.43;;;3.20;;
28437;SDS011;15667;52.376;9.708;2023-08-06T07:07:18;5.38;;;2.63;;
28437;SDS011;15667;52.376;9.708;2023-08-06T07:09:44;2.60;;;1.90;;
28437;SDS011;15667;52.376;9.708;2023-08-06T07:12:10;3.72;;;2.60;;
28437;SDS011;15667;52.376;9.708;2023-08-06T07:14:36;2.17;;;1.83;;
28437;SDS011;15667;52.376;9.708;2023-08-06T07:17:02;7.38;;;2.45;;
28437;SDS011;15667;52.376;9.708;2023-08-06T07:19:28;4.53;;;2.22;;
28437;SDS011;15667;52.376;9.708;2023-08-06T07:21:54;6.35;;;1.88;;
28437;SDS011;15667;52.376;9.708;2023-08-06T07:24:21;6.82;;;2.33;;
28437;SDS011;15667;52.376;9.708;2023-08-06T07:26:50;7.85;;;2.28;;
28437;SDS011;15667;52.376;9.708;2023-08-06T07:29:17;2.33;;;1.77;;
28437;SDS011;15667;52.376;9.708;2023-08-06T07:31:46;3.17;;;2.20;;
28437;SDS011;15667;52.376;9.708;2023-08-06T07:34:12;7.68;;;2.28;;
28437;SDS011;15667;52.376;9.708;2023-08-06T07:36:38;2.50;;;2.30;;
28437;SDS011;15667;52.376;9.708;2023-08-06T07:39:04;5.15;;;2.17;;
28437;SDS011;15667;52.376;9.708;2023-08-06T08:36:42;7.93;;;3.70;;
28437;SDS011;15667;52.376;9.708;2023-08-06T08:39:09;2.08;;;1.88;;
28437;SDS011;15667;52.376;9.708;2023-08-06T08:42:19;2.10;;;1.77;;
28437;SDS011;15667;52.376;9.708;2023-08-06T08:44:46;2.70;;;1.80;;
28437;SDS011;15667;52.376;9.708;2023-08-06T08:47:12;3.20;;;1.98;;
28437;SDS011;15667;52.376;9.708;2023-08-06T08:49:39;2.17;;;1.42;;
28437;SDS011;15667;52.376;9.708;2023-08-06T08:52:06;2.72;;;1.83;;
28437;SDS011;15667;52.376;9.708;2023-08-06T08:54:35;1.98;;;1.75;;
28437;SDS011;15667;52.376;9.708;2023-08-06T08:57:03;5.53;;;2.00;;
28437;SDS011;15667;52.376;9.708;2023-08-06T08:59:29;4.15;;;1.95;;
28437;SDS011;15667;52.376;9.708;2023-08-06T09:01:55;1.67;;;1.58;;
28437;SDS011;15667;52.376;9.708;2023-08-06T09:06:58;4.38;;;1.92;;
28437;SDS011;15667;52.376;9.708;2023-08-06T09:09:26;4.32;;;1.98;;
28437;SDS011;15667;52.376;9.708;2023-08-06T09:12:01;5.68;;;2.30;;
28437;SDS011;15667;52.376;9.708;2023-08-06T09:14:28;4.05;;;1.63;;
28437;SDS011;15667;52.376;9.708;2023-08-06T09:16:54;4.85;;;1.80;;
28437;SDS011;15667;52.376;9.708;2023-08-06T09:19:21;2.30;;;1.60;;
28437;SDS011;15667;52.376;9.708;2023-08-06T09:21:54;2.00;;;1.60;;
28437;SDS011;15667;52.376;9.708;2023-08-06T09:24:22;3.45;;;1.83;;
28437;SDS011;15667;52.376;9.708;2023-08-06T09:26:48;1.65;;;1.50;;
28437;SDS011;15667;52.376;9.708;2023-08-06T09:29:14;2.85;;;1.60;;
28437;SDS011;15667;52.376;9.708;2023-08-06T09:31:43;3.10;;;1.75;;
28437;SDS011;15667;52.376;9.708;2023-08-06T09:34:20;1.63;;;1.40;;
28437;SDS011;15667;52.376;9.708;2023-08-06T09:36:52;1.70;;;1.30;;
28437;SDS011;15667;52.376;9.708;2023-08-06T09:39:19;2.65;;;1.70;;
28437;SDS011;15667;52.376;9.708;2023-08-06T09:41:46;6.28;;;1.80;;
28437;SDS011;15667;52.376;9.708;2023-08-06T09:44:19;2.13;;;1.52;;
28437;SDS011;15667;52.376;9.708;2023-08-06T09:46:59;2.45;;;1.65;;
28437;SDS011;15667;52.376;9.708;2023-08-06T09:49:27;3.35;;;1.50;;
28437;SDS011;15667;52.376;9.708;2023-08-06T09:52:11;1.88;;;1.27;;
28437;SDS011;15667;52.376;9.708;2023-08-06T13:36:09;1.98;;;1.48;;
28437;SDS011;15667;52.376;9.708;2023-08-06T13:38:35;2.28;;;1.42;;
28437;SDS011;15667;52.376;9.708;2023-08-06T14:06:10;4.28;;;1.30;;
28437;SDS011;15667;52.376;9.708;2023-08-06T14:08:35;6.68;;;1.42;;
28437;SDS011;15667;52.376;9.708;2023-08-06T14:11:01;7.05;;;2.15;;
28437;SDS011;15667;52.376;9.708;2023-08-06T14:13:27;4.72;;;1.50;;
28437;SDS011;15667;52.376;9.708;2023-08-06T14:15:53;1.80;;;1.48;;
28437;SDS011;15667;52.376;9.708;2023-08-06T14:18:21;2.00;;;1.33;;
28437;SDS011;15667;52.376;9.708;2023-08-06T14:20:48;1.85;;;1.52;;
28437;SDS011;15667;52.376;9.708;2023-08-06T14:23:14;2.97;;;1.92;;
28437;SDS011;15667;52.376;9.708;2023-08-06T14:25:40;5.65;;;1.85;;
28437;SDS011;15667;52.376;9.708;2023-08-06T14:28:06;4.75;;;2.15;;
28437;SDS011;15667;52.376;9.708;2023-08-06T14:30:36;2.30;;;1.70;;
28437;SDS011;15667;52.376;9.708;2023-08-06T14:33:02;4.57;;;2.10;;
28437;SDS011;15667;52.376;9.708;2023-08-06T14:35:28;3.47;;;2.10;;
28437;SDS011;15667;52.376;9.708;2023-08-06T14:37:54;5.03;;;2.00;;
28437;SDS011;15667;52.376;9.708;2023-08-06T14:40:34;3.67;;;2.67;;
28437;SDS011;15667;52.376;9.708;2023-08-06T14:43:04;3.78;;;2.25;;
28437;SDS011;15667;52.376;9.708;2023-08-06T14:45:31;4.00;;;2.05;;
28437;SDS011;15667;52.376;9.708;2023-08-06T14:47:57;3.95;;;2.38;;
28437;SDS011;15667;52.376;9.708;2023-08-06T14:50:23;3.38;;;2.20;;
28437;SDS011;15667;52.376;9.708;2023-08-06T14:52:52;3.75;;;2.10;;
28437;SDS011;15667;52.376;9.708;2023-08-06T16:03:02;5.72;;;2.90;;
28437;SDS011;15667;52.376;9.708;2023-08-06T16:05:28;4.65;;;2.65;;
28437;SDS011;15667;52.376;9.708;2023-08-06T16:07:54;4.18;;;2.90;;
28437;SDS011;15667;52.376;9.708;2023-08-06T16:43:54;6.18;;;3.17;;
28437;SDS011;15667;52.376;9.708;2023-08-06T16:46:47;9.35;;;2.80;;
28437;SDS011;15667;52.376;9.708;2023-08-06T16:49:13;4.78;;;3.28;;
28437;SDS011;15667;52.376;9.708;2023-08-06T16:51:39;6.13;;;3.10;;
28437;SDS011;15667;52.376;9.708;2023-08-06T16:54:05;2.75;;;2.28;;
28437;SDS011;15667;52.376;9.708;2023-08-06T16:56:31;3.78;;;2.13;;
28437;SDS011;15667;52.376;9.708;2023-08-06T16:58:57;3.72;;;2.33;;
28437;SDS011;15667;52.376;9.708;2023-08-06T17:01:24;5.00;;;2.50;;
28437;SDS011;15667;52.376;9.708;2023-08-06T17:03:50;5.30;;;2.42;;
28437;SDS011;15667;52.376;9.708;2023-08-06T17:06:19;3.15;;;2.22;;
28437;SDS011;15667;52.376;9.708;2023-08-06T17:08:45;6.45;;;2.72;;
28437;SDS011;15667;52.376;9.708;2023-08-06T17:11:12;5.93;;;2.50;;
28437;SDS011;15667;52.376;9.708;2023-08-06T17:13:38;4.38;;;2.58;;
28437;SDS011;15667;52.376;9.708;2023-08-06T17:16:04;4.20;;;2.42;;
28437;SDS011;15667;52.376;9.708;2023-08-06T17:18:30;5.05;;;2.85;;
28437;SDS011;15667;52.376;9.708;2023-08-06T17:20:56;6.25;;;3.03;;
28437;SDS011;15667;52.376;9.708;2023-08-06T17:23:22;18.50;;;9.75;;
28437;SDS011;15667;52.376;9.708;2023-08-06T17:25:48;10.27;;;4.43;;
28437;SDS011;15667;52.376;9.708;2023-08-06T17:28:14;8.10;;;3.47;;
28437;SDS011;15667;52.376;9.708;2023-08-06T17:30:41;4.97;;;2.83;;
28437;SDS011;15667;52.376;9.708;2023-08-06T17:33:08;3.97;;;2.60;;
28437;SDS011;15667;52.376;9.708;2023-08-06T17:35:34;4.13;;;2.42;;
28437;SDS011;15667;52.376;9.708;2023-08-06T17:38:00;5.10;;;2.35;;
28437;SDS011;15667;52.376;9.708;2023-08-06T17:40:29;3.58;;;2.40;;
28437;SDS011;15667;52.376;9.708;2023-08-06T17:42:58;3.20;;;2.20;;
28437;SDS011;15667;52.376;9.708;2023-08-06T17:45:24;3.60;;;2.38;;
28437;SDS011;15667;52.376;9.708;2023-08-06T17:47:50;6.93;;;2.85;;
28437;SDS011;15667;52.376;9.708;2023-08-06T17:50:16;4.82;;;2.65;;
28437;SDS011;15667;52.376;9.708;2023-08-06T17:52:42;4.13;;;2.28;;
28437;SDS011;15667;52.376;9.708;2023-08-06T17:55:09;3.35;;;2.20;;
28437;SDS011;15667;52.376;9.708;2023-08-06T17:57:35;4.03;;;2.30;;
28437;SDS011;15667;52.376;9.708;2023-08-06T18:00:01;4.80;;;2.50;;
28437;SDS011;15667;52.376;9.708;2023-08-06T18:02:28;3.50;;;2.55;;
28437;SDS011;15667;52.376;9.708;2023-08-06T18:04:54;6.90;;;2.92;;
28437;SDS011;15667;52.376;9.708;2023-08-06T18:07:20;2.53;;;2.03;;
28437;SDS011;15667;52.376;9.708;2023-08-06T18:09:46;3.63;;;2.40;;
28437;SDS011;15667;52.376;9.708;2023-08-06T18:12:12;8.73;;;2.80;;
28437;SDS011;15667;52.376;9.708;2023-08-06T18:14:38;3.33;;;2.53;;
28437;SDS011;15667;52.376;9.708;2023-08-06T18:17:04;4.60;;;2.63;;
28437;SDS011;15667;52.376;9.708;2023-08-06T18:19:30;5.22;;;2.92;;
28437;SDS011;15667;52.376;9.708;2023-08-06T18:21:56;3.83;;;2.80;;
28437;SDS011;15667;52.376;9.708;2023-08-06T18:24:22;4.93;;;2.50;;
28437;SDS011;15667;52.376;9.708;2023-08-06T18:26:48;5.65;;;2.85;;
28437;SDS011;15667;52.376;9.708;2023-08-06T18:29:14;5.18;;;3.15;;
28437;SDS011;15667;52.376;9.708;2023-08-06T18:31:40;5.60;;;2.78;;
28437;SDS011;15667;52.376;9.708;2023-08-06T18:34:06;6.30;;;3.20;;
28437;SDS011;15667;52.376;9.708;2023-08-06T18:36:33;3.50;;;2.50;;
28437;SDS011;15667;52.376;9.708;2023-08-06T18:38:59;3.92;;;2.75;;
28437;SDS011;15667;52.376;9.708;2023-08-06T18:41:26;5.80;;;3.00;;
28437;SDS011;15667;52.376;9.708;2023-08-06T18:43:52;5.78;;;3.20;;
28437;SDS011;15667;52.376;9.708;2023-08-06T18:46:18;5.55;;;3.13;;
28437;SDS011;15667;52.376;9.708;2023-08-06T18:48:44;7.40;;;3.13;;
28437;SDS011;15667;52.376;9.708;2023-08-06T18:51:10;9.27;;;2.97;;
28437;SDS011;15667;52.376;9.708;2023-08-06T18:53:37;4.55;;;2.97;;
28437;SDS011;15667;52.376;9.708;2023-08-06T18:56:03;4.03;;;2.97;;
28437;SDS011;15667;52.376;9.708;2023-08-06T18:58:29;6.93;;;2.70;;
28437;SDS011;15667;52.376;9.708;2023-08-06T19:00:55;4.57;;;2.40;;
28437;SDS011;15667;52.376;9.708;2023-08-06T19:03:24;5.35;;;2.28;;
28437;SDS011;15667;52.376;9.708;2023-08-06T19:05:50;5.47;;;2.75;;
28437;SDS011;15667;52.376;9.708;2023-08-06T19:08:16;4.35;;;2.53;;
28437;SDS011;15667;52.376;9.708;2023-08-06T19:10:45;3.03;;;2.13;;
28437;SDS011;15667;52.376;9.708;2023-08-06T19:13:11;6.05;;;2.30;;
28437;SDS011;15667;52.376;9.708;2023-08-06T19:15:44;5.65;;;2.63;;
28437;SDS011;15667;52.376;9.708;2023-08-06T19:20:40;5.70;;;2.58;;
28437;SDS011;15667;52.376;9.708;2023-08-06T19:23:07;4.00;;;2.60;;
28437;SDS011;15667;52.376;9.708;2023-08-06T19:25:40;3.95;;;2.58;;
28437;SDS011;15667;52.376;9.708;2023-08-06T19:28:15;6.05;;;2.80;;
28437;SDS011;15667;52.376;9.708;2023-08-06T19:30:41;7.85;;;2.58;;
28437;SDS011;15667;52.376;9.708;2023-08-06T19:33:08;3.95;;;2.20;;
28437;SDS011;15667;52.376;9.708;2023-08-06T19:35:45;7.57;;;2.67;;
28437;SDS011;15667;52.376;9.708;2023-08-06T19:38:19;7.32;;;2.55;;
28437;SDS011;15667;52.376;9.708;2023-08-06T19:40:46;3.85;;;2.30;;
28437;SDS011;15667;52.376;9.708;2023-08-06T19:43:30;4.30;;;2.15;;
28437;SDS011;15667;52.376;9.708;2023-08-06T19:51:23;7.25;;;2.92;;
28437;SDS011;15667;52.376;9.708;2023-08-06T19:53:50;8.38;;;2.65;;
28437;SDS011;15667;52.376;9.708;2023-08-06T19:56:17;3.50;;;2.00;;
28437;SDS011;15667;52.376;9.708;2023-08-06T19:58:43;4.07;;;2.33;;
28437;SDS011;15667;52.376;9.708;2023-08-06T20:01:10;10.52;;;2.20;;
28437;SDS011;15667;52.376;9.708;2023-08-06T20:03:36;2.83;;;1.95;;
28437;SDS011;15667;52.376;9.708;2023-08-06T20:06:08;8.57;;;2.55;;
28437;SDS011;15667;52.376;9.708;2023-08-06T20:08:34;2.63;;;2.10;;
28437;SDS011;15667;52.376;9.708;2023-08-06T20:11:01;5.25;;;2.30;;
28437;SDS011;15667;52.376;9.708;2023-08-06T20:13:28;4.32;;;2.33;;
28437;SDS011;15667;52.376;9.708;2023-08-06T20:15:54;3.17;;;1.88;;
28437;SDS011;15667;52.376;9.708;2023-08-06T20:18:20;3.08;;;2.20;;
28437;SDS011;15667;52.376;9.708;2023-08-06T20:20:53;4.25;;;2.38;;
28437;SDS011;15667;52.376;9.708;2023-08-06T20:23:20;3.60;;;2.30;;
28437;SDS011;15667;52.376;9.708;2023-08-06T20:25:48;3.47;;;2.58;;
28437;SDS011;15667;52.376;9.708;2023-08-06T20:28:17;3.50;;;2.50;;
28437;SDS011;15667;52.376;9.708;2023-08-06T20:30:46;5.75;;;2.72;;
28437;SDS011;15667;52.376;9.708;2023-08-06T20:33:21;4.20;;;2.25;;
28437;SDS011;15667;52.376;9.708;2023-08-06T20:35:47;5.18;;;2.45;;
28437;SDS011;15667;52.376;9.708;2023-08-06T20:38:15;3.63;;;2.28;;
28437;SDS011;15667;52.376;9.708;2023-08-06T20:40:46;5.40;;;2.47;;
28437;SDS011;15667;52.376;9.708;2023-08-06T20:43:27;2.83;;;2.33;;
28437;SDS011;15667;52.376;9.708;2023-08-06T20:45:53;5.00;;;2.88;;
28437;SDS011;15667;52.376;9.708;2023-08-06T20:48:19;5.38;;;2.67;;
28437;SDS011;15667;52.376;9.708;2023-08-06T20:50:46;9.30;;;3.45;;
28437;SDS011;15667;52.376;9.708;2023-08-06T20:56:04;4.43;;;2.88;;
28437;SDS011;15667;52.376;9.708;2023-08-06T20:58:30;5.25;;;2.90;;
28437;SDS011;15667;52.376;9.708;2023-08-06T21:00:58;6.70;;;2.95;;
28437;SDS011;15667;52.376;9.708;2023-08-06T21:03:25;12.00;;;3.00;;
28437;SDS011;15667;52.376;9.708;2023-08-06T21:06:01;6.65;;;3.65;;
28437;SDS011;15667;52.376;9.708;2023-08-06T21:08:31;8.38;;;3.47;;
28437;SDS011;15667;52.376;9.708;2023-08-06T21:10:58;5.13;;;3.10;;
28437;SDS011;15667;52.376;9.708;2023-08-06T21:13:25;5.22;;;3.35;;
28437;SDS011;15667;52.376;9.708;2023-08-06T21:15:55;6.05;;;3.78;;
28437;SDS011;15667;52.376;9.708;2023-08-06T21:18:22;8.98;;;4.57;;
28437;SDS011;15667;52.376;9.708;2023-08-06T21:20:53;13.85;;;6.00;;
28437;SDS011;15667;52.376;9.708;2023-08-06T21:23:19;5.78;;;3.80;;
28437;SDS011;15667;52.376;9.708;2023-08-06T21:25:56;7.15;;;4.05;;
28437;SDS011;15667;52.376;9.708;2023-08-06T21:28:27;5.63;;;3.65;;
28437;SDS011;15667;52.376;9.708;2023-08-06T21:30:57;7.22;;;3.58;;
28437;SDS011;15667;52.376;9.708;2023-08-06T21:33:24;7.35;;;3.50;;
28437;SDS011;15667;52.376;9.708;2023-08-06T21:35:51;6.60;;;3.90;;
28437;SDS011;15667;52.376;9.708;2023-08-06T21:38:18;6.95;;;3.40;;
28437;SDS011;15667;52.376;9.708;2023-08-06T21:40:44;7.57;;;3.80;;
28437;SDS011;15667;52.376;9.708;2023-08-06T21:43:11;6.00;;;3.28;;
28437;SDS011;15667;52.376;9.708;2023-08-06T21:45:36;8.95;;;3.70;;
28437;SDS011;15667;52.376;9.708;2023-08-06T21:48:02;6.97;;;4.07;;
28437;SDS011;15667;52.376;9.708;2023-08-06T21:50:28;11.07;;;4.40;;
28437;SDS011;15667;52.376;9.708;2023-08-06T21:52:55;9.98;;;4.20;;
28437;SDS011;15667;52.376;9.708;2023-08-06T21:55:20;7.32;;;3.50;;
28437;SDS011;15667;52.376;9.708;2023-08-06T21:57:48;6.38;;;3.85;;
28437;SDS011;15667;52.376;9.708;2023-08-06T22:00:14;6.95;;;4.10;;
28437;SDS011;15667;52.376;9.708;2023-08-06T22:02:41;6.20;;;3.80;;
28437;SDS011;15667;52.376;9.708;2023-08-06T22:05:07;5.95;;;4.20;;
28437;SDS011;15667;52.376;9.708;2023-08-06T22:07:33;6.68;;;4.03;;
28437;SDS011;15667;52.376;9.708;2023-08-06T22:09:59;10.77;;;4.57;;
28437;SDS011;15667;52.376;9.708;2023-08-06T22:12:25;8.55;;;4.30;;
28437;SDS011;15667;52.376;9.708;2023-08-06T22:14:50;7.78;;;4.40;;
28437;SDS011;15667;52.376;9.708;2023-08-06T22:17:16;7.47;;;4.40;;
28437;SDS011;15667;52.376;9.708;2023-08-06T22:19:42;10.82;;;4.78;;
28437;SDS011;15667;52.376;9.708;2023-08-06T22:22:09;8.73;;;4.53;;
28437;SDS011;15667;52.376;9.708;2023-08-06T22:24:35;6.93;;;4.15;;
28437;SDS011;15667;52.376;9.708;2023-08-06T22:27:01;7.15;;;4.82;;
28437;SDS011;15667;52.376;9.708;2023-08-06T22:29:27;9.35;;;4.32;;
28437;SDS011;15667;52.376;9.708;2023-08-06T22:31:53;7.20;;;4.30;;
28437;SDS011;15667;52.376;9.708;2023-08-06T22:34:19;8.68;;;4.43;;
28437;SDS011;15667;52.376;9.708;2023-08-06T22:36:45;7.05;;;4.82;;
28437;SDS011;15667;52.376;9.708;2023-08-06T22:39:11;7.47;;;4.65;;
28437;SDS011;15667;52.376;9.708;2023-08-06T22:41:37;7.88;;;4.30;;
28437;SDS011;15667;52.376;9.708;2023-08-06T22:44:03;7.78;;;4.15;;
28437;SDS011;15667;52.376;9.708;2023-08-06T22:46:29;8.15;;;4.90;;
